sensor_id;sensor_type;location;lat;lon;timestamp;pressure;altitude;pressure_sealevel;temperature;humidity
47536;BME280;33278;50.826;9.030;2022-12-16T09:14:19;98220.13;;;18.98;29.91
47536;BME280;33278;50.826;9.030;2022-12-16T09:17:08;98229.66;;;18.96;30.29
47536;BME280;33278;50.826;9.030;2022-12-16T09:19:57;98228.72;;;18.92;29.97
47536;BME280;33278;50.826;9.030;2022-12-16T09:22:46;98241.97;;;18.62;30.27
47536;BME280;33278;50.826;9.030;2022-12-16T09:25:35;98242.47;;;18.24;31.27
47536;BME280;33278;50.826;9.030;2022-12-16T09:28:24;98236.25;;;18.14;31.70
47536;BME280;33278;50.826;9.030;2022-12-16T09:31:13;98238.28;;;18.09;31.70
47536;BME280;33278;50.826;9.030;2022-12-16T09:34:02;98240.72;;;18.19;31.88
47536;BME280;33278;50.826;9.030;2022-12-16T09:36:51;98232.81;;;18.31;31.55
47536;BME280;33278;50.826;9.030;2022-12-16T09:39:40;98236.94;;;18.29;31.62
47536;BME280;33278;50.826;9.030;2022-12-16T09:48:50;98247.63;;;18.43;31.52
47536;BME280;33278;50.826;9.030;2022-12-16T09:51:44;98247.75;;;18.38;31.70
47536;BME280;33278;50.826;9.030;2022-12-16T09:54:38;98252.81;;;18.30;31.94
47536;BME280;33278;50.826;9.030;2022-12-16T09:57:31;98248.81;;;18.28;31.92
47536;BME280;33278;50.826;9.030;2022-12-16T10:00:24;98251.69;;;18.23;32.12
47536;BME280;33278;50.826;9.030;2022-12-16T10:03:21;98256.44;;;18.26;32.01
47536;BME280;33278;50.826;9.030;2022-12-16T10:09:50;98256.34;;;18.40;31.91
47536;BME280;33278;50.826;9.030;2022-12-16T10:16:58;98261.50;;;18.67;31.83
47536;BME280;33278;50.826;9.030;2022-12-16T10:23:35;98258.63;;;18.64;31.77
47536;BME280;33278;50.826;9.030;2022-12-16T10:26:52;98261.16;;;18.60;31.95
47536;BME280;33278;50.826;9.030;2022-12-16T10:29:45;98257.25;;;18.84;31.83
47536;BME280;33278;50.826;9.030;2022-12-16T10:32:43;98267.72;;;18.77;31.65
47536;BME280;33278;50.826;9.030;2022-12-16T10:35:53;98271.44;;;18.58;32.06
47536;BME280;33278;50.826;9.030;2022-12-16T10:38:52;98261.31;;;18.55;32.73
47536;BME280;33278;50.826;9.030;2022-12-16T10:41:46;98265.34;;;18.75;32.34
47536;BME280;33278;50.826;9.030;2022-12-16T10:44:54;98271.94;;;18.60;32.13
47536;BME280;33278;50.826;9.030;2022-12-16T10:47:45;98274.13;;;18.49;32.88
47536;BME280;33278;50.826;9.030;2022-12-16T10:50:34;98282.03;;;18.37;32.80
47536;BME280;33278;50.826;9.030;2022-12-16T10:53:27;98278.22;;;18.38;32.76
47536;BME280;33278;50.826;9.030;2022-12-16T11:00:18;98280.00;;;20.06;30.57
47536;BME280;33278;50.826;9.030;2022-12-16T11:03:34;98273.13;;;20.08;29.86
47536;BME280;33278;50.826;9.030;2022-12-16T11:06:36;98284.16;;;19.95;30.03
47536;BME280;33278;50.826;9.030;2022-12-16T11:09:30;98283.97;;;19.82;30.33
47536;BME280;33278;50.826;9.030;2022-12-16T11:12:28;98287.03;;;19.72;30.46
47536;BME280;33278;50.826;9.030;2022-12-16T11:15:30;98281.47;;;19.77;30.47
47536;BME280;33278;50.826;9.030;2022-12-16T11:18:20;98275.41;;;19.98;30.15
47536;BME280;33278;50.826;9.030;2022-12-16T11:21:19;98284.28;;;20.07;30.08
47536;BME280;33278;50.826;9.030;2022-12-16T11:27:00;98281.25;;;20.08;30.48
47536;BME280;33278;50.826;9.030;2022-12-16T11:29:58;98281.59;;;20.07;30.19
47536;BME280;33278;50.826;9.030;2022-12-16T11:32:51;98281.75;;;20.02;30.25
47536;BME280;33278;50.826;9.030;2022-12-16T11:35:45;98282.88;;;20.01;30.25
47536;BME280;33278;50.826;9.030;2022-12-16T11:38:45;98274.47;;;19.93;30.18
47536;BME280;33278;50.826;9.030;2022-12-16T11:41:49;98275.56;;;19.92;30.85
47536;BME280;33278;50.826;9.030;2022-12-16T11:44:41;98282.44;;;19.90;30.50
47536;BME280;33278;50.826;9.030;2022-12-16T11:50:28;98291.97;;;19.87;30.63
47536;BME280;33278;50.826;9.030;2022-12-16T11:53:36;98288.31;;;19.74;30.78
47536;BME280;33278;50.826;9.030;2022-12-16T11:56:31;98289.09;;;19.75;30.83
47536;BME280;33278;50.826;9.030;2022-12-16T11:59:41;98293.09;;;19.86;30.53
47536;BME280;33278;50.826;9.030;2022-12-16T12:02:37;98293.38;;;19.93;30.53
47536;BME280;33278;50.826;9.030;2022-12-16T12:05:36;98300.09;;;19.87;30.59
47536;BME280;33278;50.826;9.030;2022-12-16T12:08:34;98301.94;;;19.08;32.25
47536;BME280;33278;50.826;9.030;2022-12-16T12:11:30;98297.28;;;18.91;32.13
47536;BME280;33278;50.826;9.030;2022-12-16T12:14:42;98307.25;;;18.90;31.94
47536;BME280;33278;50.826;9.030;2022-12-16T12:20:49;98305.41;;;19.00;32.40
47536;BME280;33278;50.826;9.030;2022-12-16T12:27:11;98315.44;;;18.99;32.02
47536;BME280;33278;50.826;9.030;2022-12-16T12:30:09;98323.38;;;19.04;32.13
47536;BME280;33278;50.826;9.030;2022-12-16T12:33:15;98328.78;;;19.04;31.96
47536;BME280;33278;50.826;9.030;2022-12-16T12:36:28;98331.56;;;18.90;32.28
47536;BME280;33278;50.826;9.030;2022-12-16T12:39:35;98330.22;;;19.02;32.10
47536;BME280;33278;50.826;9.030;2022-12-16T12:42:51;98339.13;;;19.28;32.24
47536;BME280;33278;50.826;9.030;2022-12-16T12:48:53;98348.19;;;19.15;31.85
47536;BME280;33278;50.826;9.030;2022-12-16T12:52:01;98345.38;;;18.89;32.03
47536;BME280;33278;50.826;9.030;2022-12-16T12:55:00;98349.91;;;18.71;32.09
47536;BME280;33278;50.826;9.030;2022-12-16T12:57:54;98355.44;;;18.97;32.11
47536;BME280;33278;50.826;9.030;2022-12-16T13:00:50;98357.69;;;19.04;31.97
47536;BME280;33278;50.826;9.030;2022-12-16T13:03:42;98357.22;;;19.10;31.72
47536;BME280;33278;50.826;9.030;2022-12-16T13:06:35;98362.00;;;19.13;31.61
47536;BME280;33278;50.826;9.030;2022-12-16T13:09:32;98365.72;;;19.53;31.94
47536;BME280;33278;50.826;9.030;2022-12-16T13:12:28;98361.72;;;19.50;32.09
47536;BME280;33278;50.826;9.030;2022-12-16T13:15:37;98364.44;;;19.50;31.86
47536;BME280;33278;50.826;9.030;2022-12-16T13:18:27;98358.06;;;19.37;31.92
47536;BME280;33278;50.826;9.030;2022-12-16T13:27:26;98355.50;;;19.14;32.66
47536;BME280;33278;50.826;9.030;2022-12-16T13:30:20;98368.66;;;19.07;32.83
47536;BME280;33278;50.826;9.030;2022-12-16T13:33:27;98378.03;;;19.10;32.79
47536;BME280;33278;50.826;9.030;2022-12-16T13:36:17;98371.09;;;19.26;32.89
47536;BME280;33278;50.826;9.030;2022-12-16T13:39:26;98380.00;;;19.44;32.71
47536;BME280;33278;50.826;9.030;2022-12-16T13:45:31;98377.94;;;19.50;32.60
47536;BME280;33278;50.826;9.030;2022-12-16T13:48:28;98388.75;;;19.50;32.68
47536;BME280;33278;50.826;9.030;2022-12-16T13:54:48;98385.72;;;19.43;32.57
47536;BME280;33278;50.826;9.030;2022-12-16T13:57:41;98390.78;;;19.27;33.10
47536;BME280;33278;50.826;9.030;2022-12-16T14:00:32;98393.81;;;19.25;33.37
47536;BME280;33278;50.826;9.030;2022-12-16T14:03:51;98401.63;;;19.53;33.10
47536;BME280;33278;50.826;9.030;2022-12-16T14:06:40;98402.00;;;19.03;33.05
47536;BME280;33278;50.826;9.030;2022-12-16T14:09:35;98406.78;;;18.74;33.25
47536;BME280;33278;50.826;9.030;2022-12-16T14:12:56;98414.22;;;19.00;33.24
47536;BME280;33278;50.826;9.030;2022-12-16T14:15:54;98418.69;;;18.82;33.66
47536;BME280;33278;50.826;9.030;2022-12-16T14:22:21;98425.72;;;18.60;34.15
47536;BME280;33278;50.826;9.030;2022-12-16T14:25:14;98440.47;;;18.54;33.45
47536;BME280;33278;50.826;9.030;2022-12-16T14:28:26;98430.03;;;18.61;33.57
47536;BME280;33278;50.826;9.030;2022-12-16T14:31:38;98436.81;;;18.50;33.32
47536;BME280;33278;50.826;9.030;2022-12-16T14:34:35;98442.56;;;18.34;33.90
47536;BME280;33278;50.826;9.030;2022-12-16T14:37:37;98443.47;;;18.53;34.25
47536;BME280;33278;50.826;9.030;2022-12-16T14:40:31;98445.41;;;18.83;34.12
47536;BME280;33278;50.826;9.030;2022-12-16T14:43:23;98454.94;;;18.90;33.46
47536;BME280;33278;50.826;9.030;2022-12-16T14:46:30;98458.19;;;19.01;33.37
47536;BME280;33278;50.826;9.030;2022-12-16T14:49:24;98451.44;;;19.21;33.08
47536;BME280;33278;50.826;9.030;2022-12-16T14:52:19;98453.38;;;19.29;33.21
47536;BME280;33278;50.826;9.030;2022-12-16T14:55:24;98454.72;;;19.58;32.69
47536;BME280;33278;50.826;9.030;2022-12-16T14:58:19;98460.47;;;19.74;32.36
47536;BME280;33278;50.826;9.030;2022-12-16T15:01:21;98465.41;;;19.81;32.30
47536;BME280;33278;50.826;9.030;2022-12-16T15:04:17;98473.53;;;19.81;32.12
47536;BME280;33278;50.826;9.030;2022-12-16T15:07:11;98470.50;;;19.82;32.07
47536;BME280;33278;50.826;9.030;2022-12-16T15:10:02;98477.66;;;19.78;32.34
47536;BME280;33278;50.826;9.030;2022-12-16T15:12:51;98477.50;;;19.83;32.27
47536;BME280;33278;50.826;9.030;2022-12-16T15:15:46;98480.53;;;19.82;32.32
47536;BME280;33278;50.826;9.030;2022-12-16T15:18:42;98480.41;;;20.13;32.14
47536;BME280;33278;50.826;9.030;2022-12-16T15:21:33;98485.44;;;19.80;32.25
47536;BME280;33278;50.826;9.030;2022-12-16T15:24:24;98486.13;;;19.85;32.15
47536;BME280;33278;50.826;9.030;2022-12-16T15:30:38;98494.59;;;20.19;31.79
47536;BME280;33278;50.826;9.030;2022-12-16T15:33:30;98500.78;;;20.02;32.04
47536;BME280;33278;50.826;9.030;2022-12-16T15:36:33;98510.00;;;19.92;31.05
47536;BME280;33278;50.826;9.030;2022-12-16T15:39:34;98508.66;;;19.72;33.51
47536;BME280;33278;50.826;9.030;2022-12-16T15:42:28;98505.53;;;19.87;32.78
47536;BME280;33278;50.826;9.030;2022-12-16T15:45:27;98509.53;;;19.99;33.13
47536;BME280;33278;50.826;9.030;2022-12-16T15:48:26;98517.97;;;19.88;33.55
47536;BME280;33278;50.826;9.030;2022-12-16T15:51:31;98521.31;;;20.12;34.76
47536;BME280;33278;50.826;9.030;2022-12-16T15:54:22;98529.72;;;20.01;33.10
47536;BME280;33278;50.826;9.030;2022-12-16T15:57:30;98530.06;;;20.35;34.18
47536;BME280;33278;50.826;9.030;2022-12-16T16:00:29;98532.94;;;20.21;32.86
47536;BME280;33278;50.826;9.030;2022-12-16T16:06:24;66512.63;;;-148.42;100.00
47536;BME280;33278;50.826;9.030;2022-12-16T16:09:35;66512.63;;;-148.42;100.00
47536;BME280;33278;50.826;9.030;2022-12-16T16:12:24;66512.63;;;-148.42;100.00
47536;BME280;33278;50.826;9.030;2022-12-16T16:15:13;66512.63;;;-148.42;100.00
47536;BME280;33278;50.826;9.030;2022-12-16T16:18:22;66512.63;;;-148.42;100.00
47536;BME280;33278;50.826;9.030;2022-12-16T16:21:11;66512.63;;;-148.42;100.00
47536;BME280;33278;50.826;9.030;2022-12-16T16:24:01;66512.63;;;-148.42;100.00
47536;BME280;33278;50.826;9.030;2022-12-16T16:26:52;66512.63;;;-148.42;100.00
47536;BME280;33278;50.826;9.030;2022-12-16T16:29:41;66512.63;;;-148.42;100.00
47536;BME280;33278;50.826;9.030;2022-12-16T16:32:30;66512.63;;;-148.42;100.00
47536;BME280;33278;50.826;9.030;2022-12-16T16:35:19;66512.63;;;-148.42;100.00
47536;BME280;33278;50.826;9.030;2022-12-16T16:38:10;66512.63;;;-148.42;100.00
47536;BME280;33278;50.826;9.030;2022-12-16T16:40:59;66512.63;;;-148.42;100.00
47536;BME280;33278;50.826;9.030;2022-12-16T16:43:48;66512.63;;;-148.42;100.00
47536;BME280;33278;50.826;9.030;2022-12-16T16:46:39;66512.63;;;-148.42;100.00
47536;BME280;33278;50.826;9.030;2022-12-16T16:49:39;66512.63;;;-148.42;100.00
47536;BME280;33278;50.826;9.030;2022-12-16T16:52:30;66512.63;;;-148.42;100.00
47536;BME280;33278;50.826;9.030;2022-12-16T16:55:22;66512.63;;;-148.42;100.00
47536;BME280;33278;50.826;9.030;2022-12-16T16:58:15;66512.63;;;-148.42;100.00
47536;BME280;33278;50.826;9.030;2022-12-16T17:01:10;66512.63;;;-148.42;100.00
47536;BME280;33278;50.826;9.030;2022-12-16T17:04:00;66512.63;;;-148.42;100.00
47536;BME280;33278;50.826;9.030;2022-12-16T17:06:49;66512.63;;;-148.42;100.00
47536;BME280;33278;50.826;9.030;2022-12-16T17:09:38;66512.63;;;-148.42;100.00
47536;BME280;33278;50.826;9.030;2022-12-16T17:12:29;66512.63;;;-148.42;100.00
47536;BME280;33278;50.826;9.030;2022-12-16T17:15:24;66512.63;;;-148.42;100.00
47536;BME280;33278;50.826;9.030;2022-12-16T17:18:14;66512.63;;;-148.42;100.00
47536;BME280;33278;50.826;9.030;2022-12-16T17:21:03;66512.63;;;-148.42;100.00
47536;BME280;33278;50.826;9.030;2022-12-16T17:23:52;66512.63;;;-148.42;100.00
47536;BME280;33278;50.826;9.030;2022-12-16T17:26:42;66512.63;;;-148.42;100.00
47536;BME280;33278;50.826;9.030;2022-12-16T17:29:31;66512.63;;;-148.42;100.00
47536;BME280;33278;50.826;9.030;2022-12-16T17:32:20;66512.63;;;-148.42;100.00
47536;BME280;33278;50.826;9.030;2022-12-16T17:35:10;66512.63;;;-148.42;100.00
47536;BME280;33278;50.826;9.030;2022-12-16T17:37:59;66512.63;;;-148.42;100.00
47536;BME280;33278;50.826;9.030;2022-12-16T17:40:51;66512.63;;;-148.42;100.00
47536;BME280;33278;50.826;9.030;2022-12-16T17:43:40;66512.63;;;-148.42;100.00
47536;BME280;33278;50.826;9.030;2022-12-16T17:46:29;66512.63;;;-148.42;100.00
47536;BME280;33278;50.826;9.030;2022-12-16T17:49:18;66512.63;;;-148.42;100.00
47536;BME280;33278;50.826;9.030;2022-12-16T17:52:07;66512.63;;;-148.42;100.00
47536;BME280;33278;50.826;9.030;2022-12-16T17:54:56;66512.63;;;-148.42;100.00
47536;BME280;33278;50.826;9.030;2022-12-16T17:57:45;66512.63;;;-148.42;100.00
47536;BME280;33278;50.826;9.030;2022-12-16T18:00:34;66512.63;;;-148.42;100.00
47536;BME280;33278;50.826;9.030;2022-12-16T18:03:23;66512.63;;;-148.42;100.00
47536;BME280;33278;50.826;9.030;2022-12-16T18:06:12;66512.63;;;-148.42;100.00
47536;BME280;33278;50.826;9.030;2022-12-16T18:09:01;66512.63;;;-148.42;100.00
47536;BME280;33278;50.826;9.030;2022-12-16T18:11:50;66512.63;;;-148.42;100.00
47536;BME280;33278;50.826;9.030;2022-12-16T18:14:39;66512.63;;;-148.42;100.00
47536;BME280;33278;50.826;9.030;2022-12-16T18:17:28;66512.63;;;-148.42;100.00
47536;BME280;33278;50.826;9.030;2022-12-16T18:20:17;66512.63;;;-148.42;100.00
47536;BME280;33278;50.826;9.030;2022-12-16T18:23:06;66512.63;;;-148.42;100.00
47536;BME280;33278;50.826;9.030;2022-12-16T18:25:57;66512.63;;;-148.42;100.00
47536;BME280;33278;50.826;9.030;2022-12-16T18:28:46;66512.63;;;-148.42;100.00
47536;BME280;33278;50.826;9.030;2022-12-16T18:31:35;66512.63;;;-148.42;100.00
47536;BME280;33278;50.826;9.030;2022-12-16T18:34:24;66512.63;;;-148.42;100.00
47536;BME280;33278;50.826;9.030;2022-12-16T18:37:13;66512.63;;;-148.42;100.00
47536;BME280;33278;50.826;9.030;2022-12-16T18:40:03;66512.63;;;-148.42;100.00
47536;BME280;33278;50.826;9.030;2022-12-16T18:42:52;66512.63;;;-148.42;100.00
47536;BME280;33278;50.826;9.030;2022-12-16T18:45:41;66512.63;;;-148.42;100.00
47536;BME280;33278;50.826;9.030;2022-12-16T18:48:30;66512.63;;;-148.42;100.00
47536;BME280;33278;50.826;9.030;2022-12-16T18:51:35;66512.63;;;-148.42;100.00
47536;BME280;33278;50.826;9.030;2022-12-16T18:54:24;66512.63;;;-148.42;100.00
47536;BME280;33278;50.826;9.030;2022-12-16T18:57:13;66512.63;;;-148.42;100.00
47536;BME280;33278;50.826;9.030;2022-12-16T19:00:03;66512.63;;;-148.42;100.00
47536;BME280;33278;50.826;9.030;2022-12-16T19:02:51;66512.63;;;-148.42;100.00
47536;BME280;33278;50.826;9.030;2022-12-16T19:05:40;66512.63;;;-148.42;100.00
47536;BME280;33278;50.826;9.030;2022-12-16T19:08:29;66512.63;;;-148.42;100.00
47536;BME280;33278;50.826;9.030;2022-12-16T19:11:18;66512.63;;;-148.42;100.00
47536;BME280;33278;50.826;9.030;2022-12-16T19:14:07;66512.63;;;-148.42;100.00
47536;BME280;33278;50.826;9.030;2022-12-16T19:16:56;66512.63;;;-148.42;100.00
47536;BME280;33278;50.826;9.030;2022-12-16T19:19:45;66512.63;;;-148.42;100.00
47536;BME280;33278;50.826;9.030;2022-12-16T19:22:34;66512.63;;;-148.42;100.00
47536;BME280;33278;50.826;9.030;2022-12-16T19:25:23;66512.63;;;-148.42;100.00
47536;BME280;33278;50.826;9.030;2022-12-16T19:28:13;66512.63;;;-148.42;100.00
47536;BME280;33278;50.826;9.030;2022-12-16T19:31:03;66512.63;;;-148.42;100.00
47536;BME280;33278;50.826;9.030;2022-12-16T19:33:53;66512.63;;;-148.42;100.00
47536;BME280;33278;50.826;9.030;2022-12-16T19:36:44;66512.63;;;-148.42;100.00
47536;BME280;33278;50.826;9.030;2022-12-16T19:39:33;66512.63;;;-148.42;100.00
47536;BME280;33278;50.826;9.030;2022-12-16T19:42:22;66512.63;;;-148.42;100.00
47536;BME280;33278;50.826;9.030;2022-12-16T19:45:11;66512.63;;;-148.42;100.00
47536;BME280;33278;50.826;9.030;2022-12-16T19:48:01;66512.63;;;-148.42;100.00
47536;BME280;33278;50.826;9.030;2022-12-16T19:50:59;66512.63;;;-148.42;100.00
47536;BME280;33278;50.826;9.030;2022-12-16T19:53:48;66512.63;;;-148.42;100.00
47536;BME280;33278;50.826;9.030;2022-12-16T19:56:37;66512.63;;;-148.42;100.00
47536;BME280;33278;50.826;9.030;2022-12-16T19:59:26;66512.63;;;-148.42;100.00
47536;BME280;33278;50.826;9.030;2022-12-16T20:02:15;66512.63;;;-148.42;100.00
47536;BME280;33278;50.826;9.030;2022-12-16T20:05:04;66512.63;;;-148.42;100.00
47536;BME280;33278;50.826;9.030;2022-12-16T20:07:53;66512.63;;;-148.42;100.00
47536;BME280;33278;50.826;9.030;2022-12-16T20:10:42;66512.63;;;-148.42;100.00
47536;BME280;33278;50.826;9.030;2022-12-16T20:13:31;66512.63;;;-148.42;100.00
47536;BME280;33278;50.826;9.030;2022-12-16T20:16:20;66512.63;;;-148.42;100.00
47536;BME280;33278;50.826;9.030;2022-12-16T20:19:09;66512.63;;;-148.42;100.00
47536;BME280;33278;50.826;9.030;2022-12-16T20:21:58;66512.63;;;-148.42;100.00
47536;BME280;33278;50.826;9.030;2022-12-16T20:24:47;66512.63;;;-148.42;100.00
47536;BME280;33278;50.826;9.030;2022-12-16T20:27:36;66512.63;;;-148.42;100.00
47536;BME280;33278;50.826;9.030;2022-12-16T20:30:25;66512.63;;;-148.42;100.00
47536;BME280;33278;50.826;9.030;2022-12-16T20:33:15;66512.63;;;-148.42;100.00
47536;BME280;33278;50.826;9.030;2022-12-16T20:36:04;66512.63;;;-148.42;100.00
47536;BME280;33278;50.826;9.030;2022-12-16T20:38:53;66512.63;;;-148.42;100.00
47536;BME280;33278;50.826;9.030;2022-12-16T20:41:42;66512.63;;;-148.42;100.00
47536;BME280;33278;50.826;9.030;2022-12-16T20:44:31;66512.63;;;-148.42;100.00
47536;BME280;33278;50.826;9.030;2022-12-16T20:47:20;66512.63;;;-148.42;100.00
47536;BME280;33278;50.826;9.030;2022-12-16T20:50:09;66512.63;;;-148.42;100.00
47536;BME280;33278;50.826;9.030;2022-12-16T20:52:58;66512.63;;;-148.42;100.00
47536;BME280;33278;50.826;9.030;2022-12-16T20:55:47;66512.63;;;-148.42;100.00
47536;BME280;33278;50.826;9.030;2022-12-16T20:58:49;66512.63;;;-148.42;100.00
47536;BME280;33278;50.826;9.030;2022-12-16T21:01:38;66512.63;;;-148.42;100.00
47536;BME280;33278;50.826;9.030;2022-12-16T21:04:27;66512.63;;;-148.42;100.00
47536;BME280;33278;50.826;9.030;2022-12-16T21:07:16;66512.63;;;-148.42;100.00
47536;BME280;33278;50.826;9.030;2022-12-16T21:10:05;66512.63;;;-148.42;100.00
47536;BME280;33278;50.826;9.030;2022-12-16T21:12:54;66512.63;;;-148.42;100.00
47536;BME280;33278;50.826;9.030;2022-12-16T21:15:43;66512.63;;;-148.42;100.00
47536;BME280;33278;50.826;9.030;2022-12-16T21:18:32;66512.63;;;-148.42;100.00
47536;BME280;33278;50.826;9.030;2022-12-16T21:21:21;66512.63;;;-148.42;100.00
47536;BME280;33278;50.826;9.030;2022-12-16T21:24:10;66512.63;;;-148.42;100.00
47536;BME280;33278;50.826;9.030;2022-12-16T21:26:59;66512.63;;;-148.42;100.00
47536;BME280;33278;50.826;9.030;2022-12-16T21:29:48;66512.63;;;-148.42;100.00
47536;BME280;33278;50.826;9.030;2022-12-16T21:32:37;66512.63;;;-148.42;100.00
47536;BME280;33278;50.826;9.030;2022-12-16T21:35:26;66512.63;;;-148.42;100.00
47536;BME280;33278;50.826;9.030;2022-12-16T21:38:15;66512.63;;;-148.42;100.00
47536;BME280;33278;50.826;9.030;2022-12-16T21:41:04;66512.63;;;-148.42;100.00
47536;BME280;33278;50.826;9.030;2022-12-16T21:43:53;66512.63;;;-148.42;100.00
47536;BME280;33278;50.826;9.030;2022-12-16T21:46:42;66512.63;;;-148.42;100.00
47536;BME280;33278;50.826;9.030;2022-12-16T21:49:31;66512.63;;;-148.42;100.00
47536;BME280;33278;50.826;9.030;2022-12-16T21:52:20;66512.63;;;-148.42;100.00
47536;BME280;33278;50.826;9.030;2022-12-16T21:55:09;66512.63;;;-148.42;100.00
47536;BME280;33278;50.826;9.030;2022-12-16T21:57:58;66512.63;;;-148.42;100.00
47536;BME280;33278;50.826;9.030;2022-12-16T22:00:54;66512.63;;;-148.42;100.00
47536;BME280;33278;50.826;9.030;2022-12-16T22:03:43;66512.63;;;-148.42;100.00
47536;BME280;33278;50.826;9.030;2022-12-16T22:06:33;66512.63;;;-148.42;100.00
47536;BME280;33278;50.826;9.030;2022-12-16T22:09:22;66512.63;;;-148.42;100.00
47536;BME280;33278;50.826;9.030;2022-12-16T22:12:10;66512.63;;;-148.42;100.00
47536;BME280;33278;50.826;9.030;2022-12-16T22:14:59;66512.63;;;-148.42;100.00
47536;BME280;33278;50.826;9.030;2022-12-16T22:17:48;66512.63;;;-148.42;100.00
47536;BME280;33278;50.826;9.030;2022-12-16T22:20:37;66512.63;;;-148.42;100.00
47536;BME280;33278;50.826;9.030;2022-12-16T22:23:30;66512.63;;;-148.42;100.00
47536;BME280;33278;50.826;9.030;2022-12-16T22:26:19;66512.63;;;-148.42;100.00
47536;BME280;33278;50.826;9.030;2022-12-16T22:29:08;66512.63;;;-148.42;100.00
47536;BME280;33278;50.826;9.030;2022-12-16T22:31:57;66512.63;;;-148.42;100.00
47536;BME280;33278;50.826;9.030;2022-12-16T22:34:46;66512.63;;;-148.42;100.00
47536;BME280;33278;50.826;9.030;2022-12-16T22:37:35;66512.63;;;-148.42;100.00
47536;BME280;33278;50.826;9.030;2022-12-16T22:40:23;66512.63;;;-148.42;100.00
47536;BME280;33278;50.826;9.030;2022-12-16T22:43:12;66512.63;;;-148.42;100.00
47536;BME280;33278;50.826;9.030;2022-12-16T22:46:02;66512.63;;;-148.42;100.00
47536;BME280;33278;50.826;9.030;2022-12-16T22:48:51;66512.63;;;-148.42;100.00
47536;BME280;33278;50.826;9.030;2022-12-16T22:51:40;66512.63;;;-148.42;100.00
47536;BME280;33278;50.826;9.030;2022-12-16T22:54:29;66512.63;;;-148.42;100.00
47536;BME280;33278;50.826;9.030;2022-12-16T22:57:18;66512.63;;;-148.42;100.00
47536;BME280;33278;50.826;9.030;2022-12-16T23:00:07;66512.63;;;-148.42;100.00
47536;BME280;33278;50.826;9.030;2022-12-16T23:02:57;66512.63;;;-148.42;100.00
47536;BME280;33278;50.826;9.030;2022-12-16T23:05:46;66512.63;;;-148.42;100.00
47536;BME280;33278;50.826;9.030;2022-12-16T23:08:34;66512.63;;;-148.42;100.00
47536;BME280;33278;50.826;9.030;2022-12-16T23:11:31;66512.63;;;-148.42;100.00
47536;BME280;33278;50.826;9.030;2022-12-16T23:14:20;66512.63;;;-148.42;100.00
47536;BME280;33278;50.826;9.030;2022-12-16T23:17:11;66512.63;;;-148.42;100.00
47536;BME280;33278;50.826;9.030;2022-12-16T23:19:59;66512.63;;;-148.42;100.00
47536;BME280;33278;50.826;9.030;2022-12-16T23:22:49;66512.63;;;-148.42;100.00
47536;BME280;33278;50.826;9.030;2022-12-16T23:25:38;66512.63;;;-148.42;100.00
47536;BME280;33278;50.826;9.030;2022-12-16T23:28:26;66512.63;;;-148.42;100.00
47536;BME280;33278;50.826;9.030;2022-12-16T23:31:15;66512.63;;;-148.42;100.00
47536;BME280;33278;50.826;9.030;2022-12-16T23:34:04;66512.63;;;-148.42;100.00
47536;BME280;33278;50.826;9.030;2022-12-16T23:36:53;66512.63;;;-148.42;100.00
47536;BME280;33278;50.826;9.030;2022-12-16T23:39:42;66512.63;;;-148.42;100.00
47536;BME280;33278;50.826;9.030;2022-12-16T23:42:31;66512.63;;;-148.42;100.00
47536;BME280;33278;50.826;9.030;2022-12-16T23:45:20;66512.63;;;-148.42;100.00
47536;BME280;33278;50.826;9.030;2022-12-16T23:48:09;66512.63;;;-148.42;100.00
47536;BME280;33278;50.826;9.030;2022-12-16T23:50:58;66512.63;;;-148.42;100.00
47536;BME280;33278;50.826;9.030;2022-12-16T23:53:47;66512.63;;;-148.42;100.00
47536;BME280;33278;50.826;9.030;2022-12-16T23:56:36;66512.63;;;-148.42;100.00
47536;BME280;33278;50.826;9.030;2022-12-16T23:59:25;66512.63;;;-148.42;100.00
